NWS Home NWS Lubbock West Texas Mesonet Three hour changes as of 0948 AM, Wed Apr 25, 2018

Latest   N   C   S   Daily Sum   3hrΔ   24hrΔ   Soil Data 
Site Map   24hr Precip   72hr Precip   Google Plot


Station Time of Last Temp Now Temp 3h ago Delta-T Dewpoint Now Dewpoint 3hr ago Delta-Td 3hr Press Change (mB)
Reese Center  09:40 AM 39.7 39.1 0.6 37.1 38.3 -1.2 1.7
Abernathy  09:40 AM 40.1 38.8 1.3 37.7 38.2 -0.4 1.5
Plainview  09:40 AM 39.8 38.4 1.5 36.3 37.6 -1.3 1.5
Tahoka  09:40 AM 41 43.8 -2.8 38.7 36.4 2.3 2.4
Slaton  09:40 AM 41.2 42.9 -1.7 37.4 36.6 0.8 2
Levelland  09:40 AM 40.2 39.3 0.9 36.2 36.8 -0.5 1.9
Roaring Springs  09:40 AM 40.7 42.8 -2.1 39.9 39.1 0.8 1.4
Floydada  09:40 AM 40.8 39.8 1 37.2 38.3 -1.1 1.4
Ralls  09:40 AM 41.3 41.9 -0.6 36.4 36.3 0.1 1.8
Brownfield  09:40 AM 41 42.8 -1.8 37.4 37.7 -0.3 2.3
Muleshoe  09:40 AM 41.2 37.9 3.3 35.4 36.1 -0.7 1.3
Morton  09:40 AM 40.9 39 1.9 34.5 36.6 -2 1.6
O'Donnell  09:40 AM 41.1 45.6 -4.6 37.7 35.6 2.1 2.4
Seagraves  09:40 AM 40.8 42.3 -1.5 36.7 37.5 -0.8 2.2
Amherst  09:40 AM 39.3 38 1.3 35.6 37.1 -1.5 1.4
Plains  09:40 AM 40.2 39.5 0.8 37.8 38.4 -0.6 1.8
Lamesa  09:40 AM 43 47.6 -4.6 38.7 37.3 1.5 2.4
Hart  09:40 AM 39.4 37 2.4 35.9 35.8 0.2 1.5
Friona  09:40 AM 39.9 36.4 3.5 34.2 34.8 -0.5 1
Dimmitt  09:40 AM 38.8 36.4 2.4 34.6 34.4 0.2 1.2
Tulia  09:40 AM 39.6 36.9 2.7 37.7 36.6 1 1.3
Silverton  09:40 AM 39.5 37.5 2 36.2 36.3 -0.1 1.2
Post  09:40 AM 43.3 47.2 -3.8 38.6 36.7 1.9 2.3
Seminole  09:40 AM 41.5 44.2 -2.8 37.6 36.9 0.7 2.3
Gail  09:40 AM 44.4 49.8 -5.4 37.7 36.6 1.1 2.8
White River Lake  09:40 AM 42.3 44.7 -2.4 37.3 35.7 1.6 1.9
Graham  09:40 AM 41.9 46.4 -4.5 38.1 37.3 0.9 2.5
Sundown  09:40 AM 40 39.1 0.9 37.1 37.1 0 1.7
Anton  09:40 AM 40.5 39.3 1.2 36.5 38 -1.5 1.6
Fluvanna  09:40 AM 42.4 47.6 -5.2 39.3 37.7 1.6 2.9
Spur  09:40 AM 43.2 46.7 -3.5 37.8 37.6 0.2 2.2
Northwest Lubbock  09:40 AM 41.6 40.9 0.7 37.1 39 -1.9 1.7
Guthrie  09:40 AM 42.8 47.3 -4.6 39.4 38 1.4 2.2
Clarendon  09:40 AM 40.2 38.3 1.9 36.4 35.3 1.1 1
Paducah  09:40 AM 42.1 45.8 -3.7 40.5 38.3 2.2 2
Snyder  09:40 AM 43.7 48.3 -4.6 41.7 41.2 0.4 2.5
Memphis  09:40 AM 42.7 41.4 1.3 38.7 38.1 0.6 1.6
Jayton  09:40 AM 44.4 48.7 -4.3 39.1 38.3 0.8 2.5
Pampa  09:40 AM 39.5 34.5 5 37.7 34.2 3.5 0.7
Aspermont  09:40 AM 45.7 49.9 -4.2 40.6 40.5 0.1 2.3
Hereford  09:40 AM 40.6 36.9 3.7 32.7 33.6 -0.9 1.1
Goodlett  09:40 AM 43 45.2 -2.2 39.8 39.5 0.3 1.2
McLean  09:40 AM 39.1 37 2.1 37.2 35.1 2.1 0.9
Denver City  09:40 AM 40.7 40 0.7 34.8 37.5 -2.7 2.1
Lake Alan Henry  09:40 AM 45.1 49.1 -4 37.1 37.2 -0.1 2.2
Wolfforth  09:40 AM 40.8 41.2 -0.4 37.4 36.4 1 1.7
Andrews  09:40 AM 43.1 48.8 -5.6 38.2 35.2 3 2.4
Turkey  09:40 AM 41.6 40.3 1.3 39.4 39.4 -0 1.1
Childress  09:40 AM 41.6 42.5 -0.9 39.6 39.1 0.5 1.2
Tatum  09:40 AM 39.6 38.8 0.8 35.4 36.2 -0.8 2.1
Northfield  09:35 AM 43.2 43 0.2 39.1 39.1 -0 1.4
Dora  09:40 AM 39 36.6 2.5 34.2 35 -0.8 1.5
Northwest San Angelo  09:40 AM 53.2 60 -6.8 40.3 49.7 -9.4 3.6
Saint Lawrence  09:40 AM 49.1 52.9 -3.8 40.2 43.6 -3.4 3.4
Haskell  09:40 AM 46.2 49.5 -3.2 41.1 42.2 -1.1 2.1
Wall  09:40 AM 53.8 64.4 -10.7 44.1 58.6 -14.5 4.3
Seymour  09:40 AM 46 49.7 -3.7 43.5 44.1 -0.7 2.4
Knox City  09:40 AM 46.7 50.5 -3.9 40.6 40.6 -0 2.2
Guadalupe Mtns Park  09:40 AM 44.9 46.1 -1.2 36.9 41.7 -4.8 2.2
Caprock Canyons   09:40 AM 41.2 39.3 1.9 37 38 -1 0.9
Odell  09:40 AM 44.7 46.7 -2.1 43.3 42.6 0.7 1.7
Coyanosa  09:40 AM 48.2 55.4 -7.2 42.7 39.9 2.7 3.7
Big Lake  09:40 AM 50.8 64.6 -13.8 43.1 54.2 -11.2 3.8
Junction  09:40 AM 71.5 65.5 6 54.7 50.2 4.5 0.8
Hobbs  09:40 AM 40.2 41.2 -1 39.1 38.6 0.5 2.4
Canadian  09:40 AM 40.6 36.6 4 37.1 35.5 1.6 0.5
Palo Duro Canyon State Park Rim  09:40 AM 40.1 37 3.1 33.1 34.2 -1.1 1.1
Bootleg  09:40 AM 40 35.8 4.1 29.9 31.3 -1.4 0.9
Sterling City  09:40 AM 48.2 51.8 -3.6 40.7 43 -2.3 2.7
Mertzon  09:40 AM 54.3 65.4 -11.1 43.5 55.2 -11.7 3.3
Persimmon Gap  09:40 AM 59.7 63.5 -3.8 41.2 43.1 -1.9 3.8
Weinert  09:40 AM 46.8 49.9 -3 42.1 42.2 -0.1 2.4
Claude 12 Southwest  09:40 AM 38.7 35.9 2.8 34.9 34.5 0.4 1.2
Amarillo 7 South Southeast  09:40 AM 38.8 36.1 2.7 33.9 34.6 -0.7 0.9
Umbarger  09:40 AM 39.7 36.3 3.4 34.1 34.2 -0.1 1
Lomax  09:40 AM 45.9 52.2 -6.4 41.9 40.6 1.3 3
Amarillo 9 North Northeast  09:40 AM 39.4 36.2 3.1 35.3 36.2 -0.9 0.4
Aiken 3 West Southwest  09:40 AM 40.3 38.4 1.9 36.5 37.4 -0.9 1.3
Sweetwater  09:40 AM 46.4 48.5 -2.1 42.1 43.9 -1.8 2.6
Dozier  09:40 AM 42 40.3 1.7 39 37.7 1.3 1
Amarillo 15 North Northwest  09:40 AM 40.6 37 3.6 36.1 36.7 -0.5 0.5
Menard  09:40 AM 60.2 64.6 -4.4 50.3 52 -1.7 2.6
Tarzan  09:40 AM 45.1 50.6 -5.6 39 39.1 -0.1 2.7
Goodnight  09:40 AM 39 36.9 2.1 35.6 35.4 0.2 1.1
Boys Ranch   09:40 AM 42.1 39 3.1 35.9 34.8 1.2 0.4
Fort McKavett  09:40 AM 56.9 64.2 -7.3 48.7 51.3 -2.6 2.4
Fort Chadbourne  09:40 AM 50.1 51.4 -1.3 42.9 46.6 -3.7 3.3
Palo Duro Canyon State Park Floor  09:40 AM 42.7 39.6 3.1 35.1 36 -0.9 1
Fort Lancaster  09:40 AM 59.2 70.2 -11 47.7 52.2 -4.5 3.2
Dell City 1N  09:40 AM 52.6 48.4 4.2 38.2 37.9 0.3 2.4
Clyde  09:40 AM 49 50.4 -1.4 44.3 45.5 -1.2 2.1
Snyder SSW  09:40 AM 44.3 49.1 -4.8 41.6 40.4 1.2 2.3
Panhandle  09:40 AM 38 35.4 2.6 35.1 34.1 1 0.9
Vigo Park  09:40 AM 39.6 37.1 2.5 35.2 35.2 -0 1.3
Welch  09:40 AM 41.9 45.3 -3.5 39.1 37.6 1.5 2.2
Throckmorton  09:40 AM 48.8 50.3 -1.5 43.3 45.2 -1.8 2.6
Sierra Blanca  09:40 AM 51.2 49 2.2 39.5 37.1 2.4 2.2
Fort Lewis CO  09:40 AM 53.3 38.1 15.2 11.5 10.8 0.7 1.3
New Home  09:40 AM 41 43 -1.9 37.9 37.8 0.1 2.2
McCamey  09:40 AM 53.7 59.2 -5.6 42.3 49 -6.6 4.7
Stamford  09:40 AM 49.2 51.4 -2.2 41.8 43.1 -1.3 2
Crowell  09:40 AM 44 47.5 -3.5 42.3 41.8 0.4 1.8
Stinnett  09:40 AM 39.6 34.3 5.3 33.7 33.6 0.2 0.5
Colorado City  09:40 AM 47.7 50.6 -2.9 40.3 41.8 -1.6 2.2
Happy  09:40 AM 39.6 36.7 2.9 35.7 35 0.8 1.2
Endee  09:40 AM 42.9 39 3.9 31.8 32.9 -1.1 0.7
JA Ranch  09:40 AM 41.2 39.2 2 36.9 36.6 0.3 1.3
Adrian  09:40 AM 39.2 35.6 3.6 32.6 33.4 -0.8 0.8
Lesley  09:40 AM 43.3 41.6 1.7 39.6 38.1 1.4 1.8
Earth  09:40 AM 41 37.7 3.3 36 36.2 -0.2 1.3
Van Horn  09:40 AM 46.6 48.7 -2.1 39.1 37.8 1.3 2.6
Rotan  09:40 AM 45.1 49.1 -4 41.2 41 0.2 2.3
Fritch  09:40 AM 41.4 36.2 5.2 34.5 34.6 -0.1 0.4
Olton  09:40 AM 39.9 38.2 1.8 35.8 36.2 -0.4 1.3

West Texas Mesonet Home   Site Map/Menu  NWS Lubbock Soil Data  Daily Summary Page  24hr Precip  72hr Precip  Google Plot